Time;durP1;ratioP1;P1;durP2;ratioP2;P2;SDS_P1;SDS_P2;PMS_P1;PMS_P2;Temp;Humidity;BMP_temperature;BMP_pressure;BME280_temperature;BME280_humidity;BME280_pressure;Samples;Min_cycle;Max_cycle;Signal;HPM_P1;HPM_P2
2023/03/05 00:02:40;;;;;;;8.77;2.63;;;;;;;-0.61;100.00;96413.19;10371372;28;20207;-61
2023/03/05 00:07:40;;;;;;;17.63;2.90;;;;;;;-0.74;100.00;96395.91;10370790;28;20209;-60
2023/03/05 00:12:40;;;;;;;12.60;3.43;;;;;;;-0.77;100.00;96398.66;10371203;28;20323;-62
2023/03/05 00:17:41;;;;;;;11.27;3.07;;;;;;;-0.65;100.00;96402.25;10369432;28;20216;-60
2023/03/05 00:22:41;;;;;;;14.53;2.83;;;;;;;-0.74;100.00;96390.75;10370285;28;20200;-57
2023/03/05 00:27:41;;;;;;;16.67;3.20;;;;;;;-0.75;100.00;96388.28;10370614;28;20296;-61
2023/03/05 00:32:42;;;;;;;14.87;2.83;;;;;;;-0.65;100.00;96381.66;10368903;28;20228;-60
2023/03/05 00:37:42;;;;;;;11.90;2.80;;;;;;;-0.68;100.00;96376.72;10422671;23;20239;-63
2023/03/05 00:42:42;;;;;;;11.47;3.83;;;;;;;-0.72;100.00;96370.94;10411711;28;20276;-64
2023/03/05 00:47:43;;;;;;;13.73;2.77;;;;;;;-0.59;100.00;96365.84;10409677;28;20208;-63
2023/03/05 00:52:43;;;;;;;11.97;2.60;;;;;;;-0.58;100.00;96367.50;10410536;28;20216;-64
2023/03/05 00:57:43;;;;;;;12.27;2.77;;;;;;;-0.60;100.00;96356.50;10410919;28;20212;-64
2023/03/05 01:02:44;;;;;;;12.63;3.27;;;;;;;-0.72;100.00;96350.34;10410553;28;20193;-64
2023/03/05 01:07:44;;;;;;;14.40;4.03;;;;;;;-0.72;100.00;96344.38;10410553;28;20215;-63
2023/03/05 01:12:45;;;;;;;14.37;3.13;;;;;;;-0.72;100.00;96349.50;10410595;28;20250;-64
2023/03/05 01:17:45;;;;;;;17.97;4.20;;;;;;;-0.78;100.00;96344.75;10410136;28;20271;-65
2023/03/05 01:22:45;;;;;;;9.43;2.97;;;;;;;-0.73;100.00;96324.75;10410146;28;20240;-62
2023/03/05 01:27:46;;;;;;;8.13;3.10;;;;;;;-0.88;100.00;96318.81;10408700;28;20205;-61
2023/03/05 01:32:46;;;;;;;10.80;3.13;;;;;;;-0.94;100.00;96316.59;10410409;28;20216;-65
2023/03/05 01:37:47;;;;;;;10.50;3.20;;;;;;;-0.88;100.00;96318.81;10371635;28;20336;-64
2023/03/05 01:42:54;;;;;;;16.13;3.70;;;;;;;-0.96;100.00;96311.56;10368996;28;20189;-65
2023/03/05 01:47:54;;;;;;;10.83;3.50;;;;;;;-0.93;100.00;96316.50;10367853;28;20349;-65
2023/03/05 01:52:58;;;;;;;16.03;3.67;;;;;;;-1.04;100.00;96306.09;10367262;28;20292;-65
2023/03/05 01:58:02;;;;;;;9.70;3.50;;;;;;;-1.03;100.00;96304.31;10368740;28;20217;-65
2023/03/05 02:03:05;;;;;;;13.77;3.10;;;;;;;-0.99;100.00;96310.94;10371211;28;20214;-63
2023/03/05 02:08:08;;;;;;;11.03;4.03;;;;;;;-1.12;100.00;96298.00;10391098;28;20213;-65
2023/03/05 02:13:12;;;;;;;7.87;3.43;;;;;;;-1.38;100.00;96302.97;10375746;28;20217;-66
2023/03/05 02:18:13;;;;;;;18.47;3.73;;;;;;;-1.35;100.00;96297.66;10390861;28;20256;-66
2023/03/05 02:23:13;;;;;;;13.53;4.03;;;;;;;-1.39;100.00;96293.66;10375400;28;20292;-65
2023/03/05 02:28:19;;;;;;;14.00;3.57;;;;;;;-1.44;100.00;96299.06;10373687;28;20217;-67
2023/03/05 02:33:19;;;;;;;15.60;3.83;;;;;;;-1.47;100.00;96299.25;10375001;28;20209;-66
2023/03/05 02:38:21;;;;;;;12.57;4.20;;;;;;;-1.47;100.00;96290.69;10449488;28;20223;-64
2023/03/05 02:43:21;;;;;;;12.67;3.63;;;;;;;-1.55;100.00;96288.59;10455666;28;20217;-63
2023/03/05 02:48:22;;;;;;;16.80;4.67;;;;;;;-1.47;100.00;96273.56;10456482;28;20337;-65
2023/03/05 02:53:22;;;;;;;9.30;3.60;;;;;;;-1.55;100.00;96272.38;10455033;28;20223;-65
2023/03/05 02:58:23;;;;;;;11.03;3.80;;;;;;;-1.52;100.00;96267.03;10456220;28;20240;-64
2023/03/05 03:03:24;;;;;;;11.77;3.67;;;;;;;-1.49;100.00;96262.53;10454449;28;20278;-64
2023/03/05 03:08:25;;;;;;;10.47;3.27;;;;;;;-1.53;100.00;96265.38;10455992;28;20585;-66
2023/03/05 03:13:25;;;;;;;4.30;2.70;;;;;;;-1.60;100.00;96254.66;10455628;28;20288;-65
2023/03/05 03:18:25;;;;;;;8.90;2.13;;;;;;;-1.59;100.00;96251.19;10455357;28;20231;-65
2023/03/05 03:23:26;;;;;;;8.03;2.30;;;;;;;-1.53;100.00;96240.53;10455266;28;20192;-65
2023/03/05 03:28:27;;;;;;;3.33;1.77;;;;;;;-1.54;100.00;96231.19;10454886;28;20204;-65
2023/03/05 03:33:27;;;;;;;6.27;1.90;;;;;;;-1.65;100.00;96221.56;10454820;28;20984;-65
2023/03/05 03:38:28;;;;;;;8.80;2.07;;;;;;;-1.44;100.00;96205.72;10454366;28;20271;-65
2023/03/05 03:43:28;;;;;;;4.13;1.63;;;;;;;-1.54;100.00;96197.78;10454335;28;20188;-63
2023/03/05 03:48:28;;;;;;;3.53;2.03;;;;;;;-1.47;100.00;96209.34;10454315;28;20212;-64
2023/03/05 03:53:29;;;;;;;3.33;1.77;;;;;;;-1.49;100.00;96205.22;10453949;28;20294;-65
2023/03/05 03:58:29;;;;;;;2.90;2.00;;;;;;;-1.49;100.00;96197.50;10453716;28;20253;-65
2023/03/05 04:03:29;;;;;;;3.80;1.40;;;;;;;-1.51;100.00;96197.59;10440786;28;20192;-64
2023/03/05 04:08:30;;;;;;;3.03;1.73;;;;;;;-1.50;100.00;96193.28;10411893;28;20224;-63
2023/03/05 04:13:30;;;;;;;14.60;1.80;;;;;;;-1.62;100.00;96190.56;10412217;28;20232;-64
2023/03/05 04:18:30;;;;;;;6.47;1.53;;;;;;;-1.66;100.00;96195.97;10411657;28;20264;-65
2023/03/05 04:23:31;;;;;;;9.40;1.50;;;;;;;-1.59;100.00;96186.97;10411681;28;20220;-63
2023/03/05 04:28:32;;;;;;;6.73;1.57;;;;;;;-1.59;100.00;96194.69;10411444;28;20262;-63
2023/03/05 04:33:32;;;;;;;7.20;1.70;;;;;;;-1.71;100.00;96190.31;10411139;28;20716;-63
2023/03/05 04:38:33;;;;;;;6.80;1.67;;;;;;;-1.67;100.00;96200.28;10411330;28;20403;-64
2023/03/05 04:43:33;;;;;;;7.13;2.63;;;;;;;-1.63;100.00;96196.59;10411004;28;20647;-63
2023/03/05 04:48:33;;;;;;;6.73;2.27;;;;;;;-1.83;100.00;96202.94;10411099;28;20282;-63
2023/03/05 04:53:34;;;;;;;6.17;2.10;;;;;;;-1.94;100.00;96197.66;10410787;28;20228;-63
2023/03/05 04:58:35;;;;;;;8.13;2.40;;;;;;;-1.93;100.00;96191.63;10410676;28;20214;-64
2023/03/05 05:03:35;;;;;;;5.57;2.50;;;;;;;-1.84;100.00;96196.19;10411040;28;20634;-64
2023/03/05 05:08:36;;;;;;;6.23;2.50;;;;;;;-1.79;100.00;96193.34;10410706;28;20213;-65
2023/03/05 05:13:36;;;;;;;9.57;3.23;;;;;;;-1.75;100.00;96202.47;10410607;28;20228;-65
2023/03/05 05:18:36;;;;;;;8.80;3.70;;;;;;;-1.78;100.00;96199.28;10409919;28;20287;-65
2023/03/05 05:23:37;;;;;;;6.57;3.67;;;;;;;-1.86;100.00;96210.84;10410189;28;20188;-64
2023/03/05 05:28:38;;;;;;;5.47;3.90;;;;;;;-1.74;100.00;96195.63;10409881;28;20262;-65
2023/03/05 05:33:38;;;;;;;7.77;3.07;;;;;;;-1.90;100.00;96195.72;10409992;28;20224;-65
2023/03/05 05:38:39;;;;;;;5.10;2.63;;;;;;;-1.82;100.00;96203.78;10414996;28;20229;-65
2023/03/05 05:43:40;;;;;;;3.83;2.23;;;;;;;-1.84;100.00;96196.19;10417573;28;20188;-65
2023/03/05 05:48:40;;;;;;;16.57;4.83;;;;;;;-2.02;100.00;96189.56;10417686;28;20204;-64
2023/03/05 05:53:41;;;;;;;9.43;3.50;;;;;;;-1.87;100.00;96200.66;10400087;28;20244;-65
2023/03/05 05:58:43;;;;;;;5.13;3.17;;;;;;;-1.84;100.00;96200.47;10376558;28;20585;-65
2023/03/05 06:03:43;;;;;;;4.43;2.70;;;;;;;-1.81;100.00;96192.59;10376676;28;20877;-65
2023/03/05 06:08:44;;;;;;;6.73;3.03;;;;;;;-1.77;100.00;96200.94;10376099;28;20205;-65
2023/03/05 06:13:44;;;;;;;3.90;2.73;;;;;;;-1.90;100.00;96180.31;10376163;28;20228;-65
2023/03/05 06:18:45;;;;;;;5.37;2.70;;;;;;;-1.74;100.00;96175.91;10375965;28;20719;-64
2023/03/05 06:23:46;;;;;;;4.17;2.30;;;;;;;-1.55;100.00;96175.56;10369780;28;20186;-64
2023/03/05 06:28:47;;;;;;;8.87;2.57;;;;;;;-1.67;100.00;96166.06;10370459;28;20248;-64
2023/03/05 06:33:48;;;;;;;3.10;1.93;;;;;;;-1.69;100.00;96173.06;10370351;28;20278;-65
2023/03/05 06:38:50;;;;;;;3.57;1.67;;;;;;;-1.52;100.00;96166.88;10421812;23;20267;-62
2023/03/05 06:43:50;;;;;;;3.20;1.60;;;;;;;-1.63;100.00;96157.25;10415670;28;20234;-59
2023/03/05 06:48:51;;;;;;;6.13;1.73;;;;;;;-1.32;100.00;96151.03;10414788;28;20231;-63
2023/03/05 06:53:53;;;;;;;2.07;1.33;;;;;;;-1.09;100.00;96139.28;10413708;28;20213;-60
2023/03/05 06:58:53;;;;;;;3.07;1.00;;;;;;;-1.16;100.00;96142.34;10415013;28;20287;-62
2023/03/05 07:03:54;;;;;;;1.33;1.23;;;;;;;-1.08;100.00;96128.06;10414595;28;20291;-61
2023/03/05 07:08:55;;;;;;;3.17;1.10;;;;;;;-1.04;100.00;96135.56;10414833;28;20247;-61
2023/03/05 07:13:55;;;;;;;1.77;1.47;;;;;;;-1.48;100.00;96142.66;10414442;28;20278;-61
2023/03/05 07:18:57;;;;;;;1.97;1.10;;;;;;;-1.40;100.00;96162.72;10414215;28;20270;-62
2023/03/05 07:24:00;;;;;;;3.77;1.40;;;;;;;-1.48;100.00;96150.34;10413906;28;20674;-61
2023/03/05 07:29:01;;;;;;;2.90;1.40;;;;;;;-1.48;100.00;96155.50;10413582;28;20217;-61
2023/03/05 07:34:02;;;;;;;5.73;2.47;;;;;;;-1.35;100.00;96156.34;10413738;28;20303;-62
2023/03/05 07:39:03;;;;;;;1.50;1.17;;;;;;;-1.38;100.00;96166.00;10413151;28;20335;-61
2023/03/05 07:44:04;;;;;;;2.03;1.30;;;;;;;-1.53;100.00;96167.78;10413068;28;20307;-60
2023/03/05 07:49:04;;;;;;;2.13;1.47;;;;;;;-1.37;100.00;96172.81;10413151;28;20303;-61
2023/03/05 07:54:05;;;;;;;3.23;1.70;;;;;;;-0.91;100.00;96173.25;10410611;28;20303;-60
2023/03/05 07:59:07;;;;;;;3.60;1.33;;;;;;;-1.23;100.00;96171.94;10409119;28;20220;-59
2023/03/05 08:04:09;;;;;;;7.97;4.37;;;;;;;-1.27;100.00;96163.59;10427934;28;20193;-60
2023/03/05 08:09:09;;;;;;;8.00;3.30;;;;;;;-1.28;100.00;96167.06;10393353;28;20220;-61
2023/03/05 08:14:10;;;;;;;4.93;2.20;;;;;;;-1.45;100.00;96166.38;10402837;28;20295;-60
2023/03/05 08:19:11;;;;;;;2.87;1.77;;;;;;;-0.96;100.00;96169.34;10411439;28;20209;-62
2023/03/05 08:24:12;;;;;;;3.77;2.10;;;;;;;-0.92;100.00;96156.19;10411725;28;20239;-62
2023/03/05 08:29:12;;;;;;;3.70;1.73;;;;;;;-0.66;100.00;96138.25;10411515;28;20204;-62
2023/03/05 08:34:13;;;;;;;3.10;2.20;;;;;;;-0.49;100.00;96134.53;10411465;28;20215;-61
2023/03/05 08:39:13;;;;;;;7.77;2.97;;;;;;;-0.45;100.00;96117.13;10411032;28;20293;-61
2023/03/05 08:44:14;;;;;;;7.00;3.83;;;;;;;-0.15;100.00;96121.13;10409740;28;20275;-63
2023/03/05 08:49:14;;;;;;;2.80;1.97;;;;;;;0.01;100.00;96119.16;10370237;28;20314;-62
2023/03/05 08:54:14;;;;;;;4.57;1.80;;;;;;;-0.20;100.00;96108.56;10379340;28;20574;-64
2023/03/05 08:59:15;;;;;;;8.10;4.20;;;;;;;-0.14;100.00;96117.63;10368568;28;20580;-61
2023/03/05 09:04:15;;;;;;;7.83;4.70;;;;;;;-0.35;100.00;96105.31;10369038;28;20244;-61
2023/03/05 09:09:19;;;;;;;6.17;3.43;;;;;;;-0.60;100.00;96111.25;10369355;28;20637;-62
2023/03/05 09:14:19;;;;;;;4.90;2.90;;;;;;;-0.57;100.00;96111.91;10376923;28;20236;-62
2023/03/05 09:19:20;;;;;;;4.47;2.93;;;;;;;-0.44;100.00;96116.22;10378772;28;20254;-61
2023/03/05 09:24:20;;;;;;;7.90;3.53;;;;;;;-0.41;100.00;96113.44;10377386;28;20245;-62
2023/03/05 09:29:21;;;;;;;7.27;3.30;;;;;;;-0.31;100.00;96109.28;10376908;28;20269;-60
2023/03/05 09:34:22;;;;;;;3.97;3.00;;;;;;;-0.43;100.00;96113.53;10377042;28;20308;-61
2023/03/05 09:39:23;;;;;;;7.57;4.30;;;;;;;-0.26;100.00;96111.56;10376253;28;21004;-60
2023/03/05 09:44:40;;;;;;;4.83;2.97;;;;;;;0.19;100.00;96108.50;10386224;28;20192;-62
2023/03/05 09:49:45;;;;;;;4.33;2.53;;;;;;;-0.01;100.00;96096.06;10415775;28;20312;-60
2023/03/05 09:54:48;;;;;;;5.20;2.37;;;;;;;0.07;100.00;96087.81;10417168;28;20717;-61
2023/03/05 09:59:51;;;;;;;3.43;2.20;;;;;;;0.22;100.00;96088.50;10415439;28;20217;-60
2023/03/05 10:04:55;;;;;;;4.10;2.67;;;;;;;0.20;100.00;96095.53;10416619;28;20247;-56
2023/03/05 10:10:00;;;;;;;6.77;2.90;;;;;;;0.31;100.00;96087.03;10416538;28;20224;-61
2023/03/05 10:15:02;;;;;;;5.20;3.00;;;;;;;0.43;100.00;96088.75;10415965;28;20285;-62
2023/03/05 10:20:14;;;;;;;4.33;2.87;;;;;;;0.93;100.00;96088.59;10415501;28;20644;-61
2023/03/05 10:25:39;;;;;;;4.17;2.90;;;;;;;1.15;100.00;96058.63;10415115;28;20184;-62
2023/03/05 10:31:07;;;;;;;3.27;2.60;;;;;;;1.73;100.00;96054.22;10414787;28;20193;-61
2023/03/05 10:36:45;;;;;;;4.03;2.30;;;;;;;2.05;100.00;96029.41;10415066;28;20256;-61
2023/03/05 10:42:23;;;;;;;5.30;2.50;;;;;;;2.26;100.00;96012.19;10413746;28;20385;-62
2023/03/05 10:47:47;;;;;;;4.40;2.63;;;;;;;2.01;100.00;96003.00;10415266;28;20216;-59
2023/03/05 10:52:53;;;;;;;5.33;3.07;;;;;;;2.89;100.00;96011.47;10414716;28;20220;-60
2023/03/05 10:57:54;;;;;;;4.67;2.70;;;;;;;2.45;97.58;95948.69;10413628;28;20217;-62
2023/03/05 11:03:03;;;;;;;5.63;3.60;;;;;;;1.59;96.38;95949.44;10412819;28;20181;-63
2023/03/05 11:08:23;;;;;;;4.17;3.00;;;;;;;1.04;100.00;95976.88;10414139;28;20237;-59
2023/03/05 11:13:26;;;;;;;5.20;2.63;;;;;;;0.79;100.00;95972.75;10413672;28;20220;-61
2023/03/05 11:18:30;;;;;;;5.27;3.10;;;;;;;0.21;100.00;95973.53;10413958;28;20295;-62
2023/03/05 11:23:30;;;;;;;4.53;3.43;;;;;;;0.09;100.00;95980.41;10413051;28;20203;-62
2023/03/05 11:28:39;;;;;;;5.60;3.90;;;;;;;0.19;100.00;95988.28;10412042;28;20240;-61
2023/03/05 11:33:53;;;;;;;6.17;4.07;;;;;;;0.74;100.00;95978.25;10412121;28;20242;-61
2023/03/05 11:38:54;;;;;;;5.50;3.80;;;;;;;1.02;100.00;95958.94;10411540;28;20601;-61
2023/03/05 11:43:55;;;;;;;4.83;3.57;;;;;;;0.80;100.00;95958.94;10413313;28;20283;-62
2023/03/05 11:48:57;;;;;;;3.67;2.40;;;;;;;0.66;100.00;95960.78;10412348;28;20215;-61
2023/03/05 11:54:05;;;;;;;4.97;2.67;;;;;;;0.13;100.00;95965.53;10412727;28;20220;-60
2023/03/05 11:59:11;;;;;;;5.20;2.40;;;;;;;0.46;100.00;95964.00;10410959;28;20248;-61
2023/03/05 12:04:12;;;;;;;9.13;5.17;;;;;;;0.48;100.00;95967.31;10412737;28;20196;-62
2023/03/05 12:09:20;;;;;;;18.03;8.30;;;;;;;0.21;100.00;95963.22;10412377;28;20228;-60
2023/03/05 12:14:38;;;;;;;4.70;3.67;;;;;;;0.07;100.00;95960.81;10411132;28;20240;-59
2023/03/05 12:19:50;;;;;;;12.60;6.10;;;;;;;0.27;100.00;95936.19;10411513;28;20216;-60
2023/03/05 12:24:51;;;;;;;7.03;2.70;;;;;;;0.77;100.00;95941.94;10412054;28;20195;-61
2023/03/05 12:29:51;;;;;;;6.23;2.13;;;;;;;1.03;100.00;95906.44;10411652;28;20208;-60
2023/03/05 12:35:05;;;;;;;3.20;2.20;;;;;;;0.40;100.00;95905.19;10411608;28;20254;-61
2023/03/05 12:40:07;;;;;;;13.67;5.57;;;;;;;0.67;100.00;95898.00;10408137;22;20251;-65
2023/03/05 12:45:14;;;;;;;4.10;2.43;;;;;;;0.61;100.00;95892.47;10369628;28;20228;-64
2023/03/05 12:50:26;;;;;;;5.70;4.40;;;;;;;0.49;100.00;95886.47;10370238;28;20255;-63
2023/03/05 12:55:32;;;;;;;2.90;2.30;;;;;;;-0.08;100.00;95901.75;10369977;28;20279;-65
2023/03/05 13:01:14;;;;;;;5.57;2.77;;;;;;;-0.16;100.00;95896.34;10370056;28;20310;-66
2023/03/05 13:06:24;;;;;;;3.97;3.13;;;;;;;-0.07;100.00;95897.44;10341810;28;20193;-65
2023/03/05 13:11:26;;;;;;;6.53;3.57;;;;;;;0.43;100.00;95890.34;10369880;28;20227;-65
2023/03/05 13:16:30;;;;;;;10.67;5.10;;;;;;;0.86;100.00;95881.13;10352168;28;20258;-61
2023/03/05 13:21:32;;;;;;;5.77;2.60;;;;;;;0.57;100.00;95868.69;10351545;28;20252;-65
2023/03/05 13:26:37;;;;;;;4.43;2.93;;;;;;;0.91;100.00;95868.69;10369198;28;20192;-65
2023/03/05 13:31:46;;;;;;;3.33;2.63;;;;;;;0.82;100.00;95851.38;10369469;28;20217;-65
2023/03/05 13:36:59;;;;;;;11.83;4.10;;;;;;;1.88;100.00;95837.84;10369067;28;20227;-65
2023/03/05 13:42:06;;;;;;;8.03;2.50;;;;;;;1.58;100.00;95841.16;10351502;28;20257;-65
2023/03/05 13:47:11;;;;;;;6.87;3.00;;;;;;;1.32;100.00;95833.72;10368894;28;20198;-64
2023/03/05 13:52:22;;;;;;;5.17;2.40;;;;;;;1.22;100.00;95835.38;10369203;28;20219;-65
2023/03/05 13:57:40;;;;;;;5.43;2.83;;;;;;;1.08;100.00;95838.22;10369927;28;20211;-67
2023/03/05 14:02:41;;;;;;;5.63;2.77;;;;;;;0.81;100.00;95831.66;10375985;28;20189;-65
2023/03/05 14:07:42;;;;;;;2.17;1.90;;;;;;;0.38;100.00;95837.50;10374828;28;20259;-64
2023/03/05 14:12:42;;;;;;;8.20;2.60;;;;;;;0.48;100.00;95851.34;10357537;28;20795;-63
2023/03/05 14:17:42;;;;;;;5.33;1.90;;;;;;;0.24;100.00;95841.13;10375152;28;20212;-63
2023/03/05 14:22:45;;;;;;;4.13;2.87;;;;;;;0.27;100.00;95858.91;10374453;28;20208;-64
2023/03/05 14:27:46;;;;;;;6.63;2.23;;;;;;;0.20;100.00;95840.53;10357566;28;20581;-64
2023/03/05 14:32:47;;;;;;;6.03;2.53;;;;;;;0.26;100.00;95844.38;10374428;28;20233;-64
2023/03/05 14:37:49;;;;;;;2.77;2.03;;;;;;;0.14;100.00;95834.09;10356736;28;20237;-65
2023/03/05 14:42:54;;;;;;;5.37;2.73;;;;;;;0.31;100.00;95839.75;10374268;28;20564;-65
2023/03/05 14:47:57;;;;;;;5.97;3.20;;;;;;;0.05;100.00;95831.38;10373803;28;20224;-65
2023/03/05 14:52:59;;;;;;;11.47;3.77;;;;;;;0.15;100.00;95830.59;10373891;28;20226;-65
2023/03/05 14:58:03;;;;;;;4.10;2.43;;;;;;;0.02;100.00;95813.59;10373286;28;20224;-65
2023/03/05 15:03:04;;;;;;;3.60;3.07;;;;;;;0.01;100.00;95864.22;10373635;28;20187;-63
2023/03/05 15:08:04;;;;;;;3.43;2.30;;;;;;;-0.35;100.00;95858.28;10373031;28;20287;-64
2023/03/05 15:13:05;;;;;;;5.07;2.40;;;;;;;-0.42;100.00;95844.19;10373287;28;20254;-65
2023/03/05 15:18:05;;;;;;;3.73;2.90;;;;;;;-0.49;100.00;95830.97;10373619;28;20646;-64
2023/03/05 15:23:05;;;;;;;7.50;3.20;;;;;;;-0.48;100.00;95819.72;10372911;28;20549;-64
2023/03/05 15:28:06;;;;;;;2.63;2.40;;;;;;;-0.29;100.00;95816.66;10372515;28;20228;-66
2023/03/05 15:33:12;;;;;;;3.83;2.47;;;;;;;-0.31;100.00;95808.19;10372419;28;20235;-64
2023/03/05 15:38:14;;;;;;;8.03;3.20;;;;;;;-0.27;100.00;95798.53;10371757;28;20283;-67
2023/03/05 15:43:14;;;;;;;7.13;3.57;;;;;;;-0.13;100.00;95800.09;10372186;28;20191;-67
2023/03/05 15:48:14;;;;;;;5.80;2.83;;;;;;;-0.24;100.00;95788.00;10371264;28;20785;-66
2023/03/05 15:53:15;;;;;;;5.50;2.97;;;;;;;-0.20;100.00;95795.38;10371471;28;21000;-65
2023/03/05 15:58:16;;;;;;;7.07;3.20;;;;;;;-0.10;100.00;95794.72;10371308;28;20611;-66
2023/03/05 16:03:16;;;;;;;4.77;3.00;;;;;;;-0.21;100.00;95778.28;10371235;28;20225;-66
2023/03/05 16:08:17;;;;;;;5.47;3.07;;;;;;;-0.46;100.00;95774.13;10371079;28;20242;-65
2023/03/05 16:13:17;;;;;;;4.57;2.50;;;;;;;-0.33;100.00;95768.91;10370462;28;20638;-66
2023/03/05 16:18:19;;;;;;;3.67;2.50;;;;;;;-0.20;100.00;95773.94;10371033;28;20571;-65
2023/03/05 16:23:21;;;;;;;3.60;3.23;;;;;;;-0.37;100.00;95765.75;10369424;28;20215;-66
2023/03/05 16:28:21;;;;;;;7.57;5.10;;;;;;;-0.19;100.00;95762.72;10370669;28;20240;-63
2023/03/05 16:33:21;;;;;;;6.07;3.40;;;;;;;-0.28;100.00;95753.94;10370862;28;20300;-66
2023/03/05 16:38:22;;;;;;;4.77;3.50;;;;;;;-0.28;100.00;95760.84;10370012;28;20244;-63
2023/03/05 16:43:22;;;;;;;5.50;3.50;;;;;;;-0.46;100.00;95763.84;10370705;28;20753;-64
2023/03/05 16:48:22;;;;;;;7.23;5.40;;;;;;;-0.59;100.00;95773.38;10369955;28;20695;-65
2023/03/05 16:53:23;;;;;;;4.27;3.23;;;;;;;-0.42;100.00;95772.97;10370301;28;20221;-65
2023/03/05 16:58:23;;;;;;;3.90;3.00;;;;;;;-0.38;100.00;95771.81;10370295;28;20602;-65
2023/03/05 17:03:24;;;;;;;3.90;2.87;;;;;;;-0.39;100.00;95766.78;10369902;28;20695;-64
2023/03/05 17:08:24;;;;;;;3.30;2.60;;;;;;;-0.29;100.00;95764.34;10369654;28;20695;-64
2023/03/05 17:13:24;;;;;;;6.37;2.53;;;;;;;-0.49;100.00;95755.50;10369437;28;20555;-63
2023/03/05 17:18:25;;;;;;;4.23;2.97;;;;;;;-0.48;100.00;95752.81;10369763;28;20774;-64
2023/03/05 17:23:25;;;;;;;5.17;3.60;;;;;;;-0.68;100.00;95766.34;10369271;28;20664;-66
2023/03/05 17:28:25;;;;;;;5.60;3.27;;;;;;;-0.59;100.00;95781.09;10369374;28;20210;-65
2023/03/05 17:33:27;;;;;;;4.70;2.73;;;;;;;-0.51;100.00;95768.50;10373541;28;20598;-64
2023/03/05 17:38:28;;;;;;;5.37;2.60;;;;;;;-0.39;100.00;95777.06;10376869;28;20249;-65
2023/03/05 17:43:28;;;;;;;13.87;5.00;;;;;;;-0.48;100.00;95791.41;10377286;28;20193;-64
2023/03/05 17:48:28;;;;;;;5.03;3.50;;;;;;;-0.68;100.00;95780.00;10376691;28;20295;-64
2023/03/05 17:53:29;;;;;;;6.17;5.13;;;;;;;-0.78;100.00;95779.84;10376699;28;20229;-65
2023/03/05 17:58:29;;;;;;;5.87;4.27;;;;;;;-0.74;100.00;95781.25;10376266;28;20208;-65
2023/03/05 18:03:30;;;;;;;7.20;4.77;;;;;;;-0.68;100.00;95781.75;10376307;28;20252;-64
2023/03/05 18:08:30;;;;;;;5.47;4.20;;;;;;;-0.51;100.00;95772.81;10376023;28;20307;-64
2023/03/05 18:13:31;;;;;;;4.53;3.63;;;;;;;-0.47;100.00;95785.34;10376082;28;20213;-66
2023/03/05 18:18:31;;;;;;;6.37;3.87;;;;;;;-0.60;100.00;95782.84;10375467;28;20234;-66
2023/03/05 18:23:31;;;;;;;4.33;3.47;;;;;;;-0.70;100.00;95775.88;10375169;28;20189;-66
2023/03/05 18:28:32;;;;;;;6.53;4.40;;;;;;;-0.64;100.00;95762.63;10375313;28;20643;-63
2023/03/05 18:33:32;;;;;;;7.60;4.83;;;;;;;-0.69;100.00;95768.06;10375019;28;20602;-66
2023/03/05 18:38:33;;;;;;;8.80;4.50;;;;;;;-0.64;100.00;95766.00;10399342;22;20245;-59
2023/03/05 18:43:34;;;;;;;7.57;4.07;;;;;;;-0.42;100.00;95775.53;10414167;28;20300;-62
2023/03/05 18:48:35;;;;;;;8.77;4.00;;;;;;;-0.46;100.00;95763.84;10415796;28;20692;-63
2023/03/05 18:53:35;;;;;;;4.00;3.10;;;;;;;-0.47;100.00;95763.97;10415276;28;20223;-61
2023/03/05 18:58:36;;;;;;;7.30;5.40;;;;;;;-0.61;100.00;95770.09;10415368;28;20239;-62
2023/03/05 19:03:36;;;;;;;5.50;3.70;;;;;;;-0.53;100.00;95760.06;10415225;28;20193;-63
2023/03/05 19:08:36;;;;;;;5.77;3.37;;;;;;;-0.54;100.00;95753.28;10414657;28;20192;-63
2023/03/05 19:13:38;;;;;;;6.30;3.63;;;;;;;-0.76;100.00;95759.97;10414563;28;20223;-63
2023/03/05 19:18:48;;;;;;;5.80;3.07;;;;;;;-0.56;100.00;95748.25;10413490;28;20216;-63
2023/03/05 19:23:48;;;;;;;4.03;3.40;;;;;;;-0.76;100.00;95741.97;10413972;28;20185;-63
2023/03/05 19:28:49;;;;;;;5.50;3.73;;;;;;;-0.61;100.00;95752.09;10413637;28;20235;-63
2023/03/05 19:33:49;;;;;;;8.10;6.10;;;;;;;-0.39;100.00;95744.44;10413148;28;20216;-63
2023/03/05 19:38:50;;;;;;;6.40;3.77;;;;;;;-0.64;100.00;95744.63;10413063;28;20285;-62
2023/03/05 19:43:50;;;;;;;6.03;3.30;;;;;;;-0.58;100.00;95739.81;10412757;28;20196;-63
2023/03/05 19:48:50;;;;;;;3.43;2.77;;;;;;;-0.56;100.00;95740.53;10412828;28;20706;-63
2023/03/05 19:53:51;;;;;;;5.37;3.20;;;;;;;-0.57;100.00;95746.63;10412516;28;20675;-64
2023/03/05 19:58:52;;;;;;;7.17;3.23;;;;;;;-0.45;100.00;95749.22;10410230;28;20196;-64
2023/03/05 20:03:54;;;;;;;7.07;3.57;;;;;;;-0.54;100.00;95740.41;10412579;28;20192;-64
2023/03/05 20:08:55;;;;;;;6.20;3.40;;;;;;;-0.47;100.00;95730.50;10411698;28;20266;-62
2023/03/05 20:13:55;;;;;;;5.23;4.17;;;;;;;-0.66;100.00;95725.88;10412031;28;20759;-64
2023/03/05 20:18:56;;;;;;;4.67;3.30;;;;;;;-0.77;100.00;95727.47;10415944;28;20303;-62
2023/03/05 20:24:00;;;;;;;7.07;3.53;;;;;;;-0.86;100.00;95727.31;10414270;28;20188;-64
2023/03/05 20:29:01;;;;;;;6.63;3.60;;;;;;;-0.86;100.00;95725.56;10411485;28;20212;-64
2023/03/05 20:34:07;;;;;;;5.33;3.63;;;;;;;-0.89;100.00;95715.50;10411021;28;20310;-64
2023/03/05 20:39:07;;;;;;;5.10;3.70;;;;;;;-0.75;100.00;95717.06;10410863;28;20233;-64
2023/03/05 20:44:10;;;;;;;7.37;4.13;;;;;;;-0.68;100.00;95705.41;10410790;28;20188;-64
2023/03/05 20:49:10;;;;;;;14.17;6.43;;;;;;;-0.78;100.00;95699.28;10410906;28;20582;-64
2023/03/05 20:54:11;;;;;;;6.50;4.07;;;;;;;-0.60;100.00;95689.41;10410584;28;20235;-64
2023/03/05 20:59:12;;;;;;;5.47;3.60;;;;;;;-0.65;100.00;95688.94;10411137;28;20224;-59
2023/03/05 21:04:12;;;;;;;8.77;6.70;;;;;;;-0.76;100.00;95680.25;10411355;28;20189;-62
2023/03/05 21:09:12;;;;;;;5.83;3.83;;;;;;;-0.76;100.00;95685.41;10420556;28;20774;-64
2023/03/05 21:14:13;;;;;;;7.23;4.63;;;;;;;-0.72;100.00;95675.69;10424525;28;20230;-64
2023/03/05 21:19:13;;;;;;;7.03;4.60;;;;;;;-0.82;100.00;95667.03;10424294;28;20307;-64
2023/03/05 21:24:15;;;;;;;8.40;4.93;;;;;;;-0.85;100.00;95669.84;10423875;28;20191;-64
2023/03/05 21:29:16;;;;;;;6.57;4.40;;;;;;;-0.89;100.00;95666.66;10424409;28;20311;-64
2023/03/05 21:34:17;;;;;;;8.00;4.77;;;;;;;-0.93;100.00;95660.13;10423886;28;20641;-63
2023/03/05 21:39:18;;;;;;;7.47;4.27;;;;;;;-0.99;100.00;95658.81;10424474;28;20621;-64
2023/03/05 21:44:18;;;;;;;8.80;4.93;;;;;;;-1.00;100.00;95661.47;10423995;28;20185;-64
2023/03/05 21:49:18;;;;;;;7.37;5.07;;;;;;;-0.96;100.00;95668.06;10423726;28;20215;-64
2023/03/05 21:54:22;;;;;;;7.40;5.43;;;;;;;-0.90;100.00;95657.31;10424110;28;20312;-64
2023/03/05 21:59:22;;;;;;;7.07;4.43;;;;;;;-0.80;100.00;95647.97;10423320;28;20240;-64
2023/03/05 22:04:23;;;;;;;8.17;4.00;;;;;;;-0.78;100.00;95635.84;10423829;28;20655;-64
2023/03/05 22:09:23;;;;;;;7.57;4.70;;;;;;;-0.76;100.00;95635.75;10423142;28;20585;-65
2023/03/05 22:14:24;;;;;;;7.70;5.20;;;;;;;-0.91;100.00;95629.97;10423528;28;20223;-62
2023/03/05 22:19:24;;;;;;;8.93;4.77;;;;;;;-0.80;100.00;95621.47;10418745;28;20216;-63
2023/03/05 22:24:24;;;;;;;6.50;4.30;;;;;;;-0.86;100.00;95616.78;10416573;28;20228;-61
2023/03/05 22:29:25;;;;;;;5.40;3.50;;;;;;;-0.86;100.00;95607.31;10416701;28;20205;-62
2023/03/05 22:34:27;;;;;;;6.00;3.90;;;;;;;-0.86;100.00;95612.44;10416063;28;20224;-64
2023/03/05 22:39:28;;;;;;;5.37;3.57;;;;;;;-0.82;100.00;95600.19;10416156;28;20241;-63
2023/03/05 22:44:28;;;;;;;7.20;3.27;;;;;;;-0.94;100.00;95591.63;10416048;28;20212;-64
2023/03/05 22:49:28;;;;;;;5.00;3.73;;;;;;;-1.01;100.00;95599.00;10415656;28;20688;-63
2023/03/05 22:54:29;;;;;;;5.83;3.07;;;;;;;-0.97;100.00;95600.38;10416399;28;20224;-62
2023/03/05 22:59:29;;;;;;;4.93;3.27;;;;;;;-0.96;100.00;95591.75;10415036;28;20294;-61
2023/03/05 23:04:48;;;;;;;6.53;3.70;;;;;;;-0.95;100.00;95587.41;10391073;28;20681;-60
2023/03/05 23:10:00;;;;;;;7.53;3.83;;;;;;;-0.95;100.00;95584.84;10373420;28;20216;-63